METAR Data
IDs: Format: Raw Decoded Include TAF

Data at: 1038 UTC 30 Oct 2020

KSWF 300945Z 05011G18KT 6SM -RA BR OVC010 04/04 A2975